createdAt,value
2023-10-25T00:00:28.956Z,59.10
2023-10-25T00:03:16.920Z,58.96
2023-10-25T00:06:03.203Z,59.25
2023-10-25T00:08:51.556Z,59.08
2023-10-25T00:11:37.861Z,59.06
2023-10-25T00:14:24.390Z,59.25
2023-10-25T00:17:11.186Z,59.42
2023-10-25T00:19:58.148Z,59.40
2023-10-25T00:22:44.380Z,59.27
2023-10-25T00:25:32.404Z,59.35
2023-10-25T00:28:19.814Z,59.43
2023-10-25T00:31:06.142Z,59.60
2023-10-25T00:33:53.087Z,59.65
2023-10-25T00:36:39.781Z,59.44
2023-10-25T00:39:26.240Z,59.39
2023-10-25T00:42:13.872Z,59.59
2023-10-25T00:45:00.460Z,59.47
2023-10-25T00:47:46.938Z,59.69
2023-10-25T00:50:33.798Z,59.73
2023-10-25T00:53:20.177Z,59.74
2023-10-25T00:56:07.769Z,59.69
2023-10-25T00:58:56.771Z,59.62
2023-10-25T01:01:43.977Z,59.63
2023-10-25T01:04:30.977Z,59.78
2023-10-25T01:07:17.594Z,59.68
2023-10-25T01:10:04.503Z,59.76
2023-10-25T01:12:51.410Z,59.70
2023-10-25T01:15:39.457Z,59.83
2023-10-25T01:18:26.328Z,59.88
2023-10-25T01:21:12.802Z,59.98
2023-10-25T01:24:01.484Z,59.90
2023-10-25T01:26:47.624Z,59.89
2023-10-25T01:29:33.933Z,60.05
2023-10-25T01:32:20.302Z,59.98
2023-10-25T01:35:08.581Z,60.00
2023-10-25T01:37:55.649Z,60.07
2023-10-25T01:40:43.796Z,60.08
2023-10-25T01:43:30.629Z,60.05
2023-10-25T01:46:17.499Z,60.24
2023-10-25T01:49:04.131Z,60.06
2023-10-25T01:51:50.386Z,60.16
2023-10-25T01:54:37.210Z,60.17
2023-10-25T01:57:25.571Z,60.19
2023-10-25T02:00:12.506Z,60.10
2023-10-25T02:03:02.084Z,60.27
2023-10-25T02:05:48.676Z,60.29
2023-10-25T02:08:35.366Z,60.34
2023-10-25T02:11:23.225Z,60.33
2023-10-25T02:14:11.243Z,60.27
2023-10-25T02:16:58.973Z,60.23
2023-10-25T02:19:46.482Z,60.29
2023-10-25T02:22:32.812Z,60.35
2023-10-25T02:25:19.370Z,60.40
2023-10-25T02:28:06.199Z,60.35
2023-10-25T02:30:54.218Z,60.45
2023-10-25T02:33:40.943Z,60.30
2023-10-25T02:36:28.089Z,60.47
2023-10-25T02:39:15.103Z,60.57
2023-10-25T02:42:01.434Z,60.58
2023-10-25T02:44:48.734Z,60.28
2023-10-25T02:47:36.446Z,60.62
2023-10-25T02:50:23.108Z,60.48
2023-10-25T02:53:10.208Z,60.40
2023-10-25T02:56:00.287Z,60.27
2023-10-25T02:58:46.784Z,60.38
2023-10-25T03:01:33.685Z,60.32
2023-10-25T03:04:22.109Z,60.20
2023-10-25T03:07:08.939Z,60.37
2023-10-25T03:09:55.581Z,60.25
2023-10-25T03:12:42.213Z,60.63
2023-10-25T03:15:28.726Z,60.54
2023-10-25T03:18:15.254Z,60.49
2023-10-25T03:21:04.428Z,60.46
2023-10-25T03:23:51.438Z,60.42
2023-10-25T03:26:38.120Z,60.30
2023-10-25T03:29:24.490Z,60.42
2023-10-25T03:32:11.169Z,60.55
2023-10-25T03:34:58.069Z,60.46
2023-10-25T03:37:46.148Z,60.40
2023-10-25T03:40:32.409Z,60.31
2023-10-25T03:43:18.632Z,60.26
2023-10-25T03:46:06.007Z,60.22
2023-10-25T03:48:52.694Z,60.43
2023-10-25T03:51:39.294Z,60.21
2023-10-25T03:54:26.962Z,60.16
2023-10-25T03:57:13.542Z,60.14
2023-10-25T04:00:00.131Z,60.12
2023-10-25T04:02:46.717Z,60.10
2023-10-25T04:05:33.498Z,60.08
2023-10-25T04:08:19.784Z,60.29
2023-10-25T04:11:08.745Z,59.98
2023-10-25T04:13:55.453Z,60.03
2023-10-25T04:16:42.012Z,60.15
2023-10-25T04:19:28.351Z,59.98
2023-10-25T04:22:14.973Z,60.10
2023-10-25T04:25:01.807Z,60.12
2023-10-25T04:27:49.669Z,60.23
2023-10-25T04:30:36.140Z,60.19
2023-10-25T04:33:22.669Z,60.24
2023-10-25T04:36:09.339Z,59.99
2023-10-25T04:38:56.040Z,60.17
2023-10-25T04:41:42.975Z,60.02
2023-10-25T04:44:32.772Z,60.08
2023-10-25T04:47:19.208Z,60.04
2023-10-25T04:50:06.447Z,60.21
2023-10-25T04:52:53.162Z,59.91
2023-10-25T04:55:39.470Z,60.03
2023-10-25T04:58:27.253Z,60.10
2023-10-25T05:01:16.612Z,60.19
2023-10-25T05:04:03.324Z,59.88
2023-10-25T05:06:50.245Z,60.12
2023-10-25T05:09:37.226Z,60.05
2023-10-25T05:12:27.232Z,60.19
2023-10-25T05:15:17.785Z,60.04
2023-10-25T05:18:06.303Z,60.28
2023-10-25T05:20:58.878Z,60.24
2023-10-25T05:23:46.002Z,60.08
2023-10-25T05:26:34.663Z,60.04
2023-10-25T05:29:23.071Z,59.94
2023-10-25T05:32:14.491Z,60.21
2023-10-25T05:35:03.714Z,60.00
2023-10-25T05:37:50.807Z,60.03
2023-10-25T05:40:37.514Z,60.33
2023-10-25T05:43:25.926Z,60.11
2023-10-25T05:46:12.912Z,60.17
2023-10-25T05:49:00.934Z,60.36
2023-10-25T05:51:49.779Z,60.35
2023-10-25T05:54:37.206Z,60.11
2023-10-25T05:57:26.578Z,60.33
2023-10-25T06:00:20.092Z,60.43
2023-10-25T06:03:12.366Z,60.26
2023-10-25T06:06:07.073Z,60.22
2023-10-25T06:08:55.676Z,60.28
2023-10-25T06:11:42.896Z,60.10
2023-10-25T06:14:29.899Z,60.35
2023-10-25T06:17:16.393Z,60.32
2023-10-25T06:20:03.026Z,60.46
2023-10-25T06:22:49.330Z,60.42
2023-10-25T06:25:37.411Z,60.42
2023-10-25T06:28:24.547Z,60.40
2023-10-25T06:31:12.557Z,60.27
2023-10-25T06:33:58.934Z,60.26
2023-10-25T06:36:45.723Z,60.25
2023-10-25T06:39:32.446Z,60.26
2023-10-25T06:42:20.841Z,60.30
2023-10-25T06:45:08.555Z,60.14
2023-10-25T06:47:55.646Z,60.20
2023-10-25T06:50:42.624Z,60.12
2023-10-25T06:53:30.189Z,60.08
2023-10-25T06:56:17.026Z,60.16
2023-10-25T06:59:05.387Z,60.06
2023-10-25T07:01:55.238Z,60.01
2023-10-25T07:04:42.937Z,60.24
2023-10-25T07:07:32.586Z,60.02
2023-10-25T07:10:20.205Z,60.04
2023-10-25T07:13:07.085Z,60.03
2023-10-25T07:15:58.688Z,60.27
2023-10-25T07:18:46.897Z,60.17
2023-10-25T07:21:33.626Z,60.09
2023-10-25T07:24:20.808Z,60.18
2023-10-25T07:27:07.410Z,60.05
2023-10-25T07:29:53.997Z,60.23
2023-10-25T07:32:42.227Z,60.16
2023-10-25T07:35:29.442Z,60.15
2023-10-25T07:38:16.986Z,59.98
2023-10-25T07:41:03.849Z,59.99
2023-10-25T07:43:51.940Z,59.95
2023-10-25T07:46:39.442Z,60.04
2023-10-25T07:49:27.785Z,59.79
2023-10-25T07:52:14.704Z,59.70
2023-10-25T07:55:01.497Z,59.95
2023-10-25T08:00:39.279Z,59.64
2023-10-25T08:03:27.702Z,59.62
2023-10-25T08:06:15.801Z,59.81
2023-10-25T08:09:04.848Z,59.96
2023-10-25T08:11:51.612Z,59.81
2023-10-25T08:14:38.481Z,59.84
2023-10-25T08:17:24.942Z,59.93
2023-10-25T08:20:12.929Z,59.82
2023-10-25T08:23:00.611Z,59.99
2023-10-25T08:25:47.123Z,59.76
2023-10-25T08:28:33.932Z,59.66
2023-10-25T08:31:22.691Z,59.83
2023-10-25T08:34:09.807Z,59.81
2023-10-25T08:36:56.227Z,59.65
2023-10-25T08:39:44.518Z,59.95
2023-10-25T08:42:31.044Z,59.75
2023-10-25T08:45:18.404Z,59.69
2023-10-25T08:48:06.358Z,59.68
2023-10-25T08:50:54.364Z,59.78
2023-10-25T08:53:42.428Z,59.66
2023-10-25T08:56:30.715Z,59.83
2023-10-25T08:59:18.574Z,59.78
2023-10-25T09:02:05.907Z,59.67
2023-10-25T09:05:03.819Z,59.72
2023-10-25T09:07:50.647Z,59.63
2023-10-25T09:10:37.207Z,59.57
2023-10-25T09:13:27.643Z,59.88
2023-10-25T09:16:15.047Z,59.88
2023-10-25T09:19:04.288Z,59.76
2023-10-25T09:21:51.077Z,59.72
2023-10-25T09:24:48.651Z,59.88
2023-10-25T09:27:43.019Z,59.86
2023-10-25T09:30:31.535Z,59.67
2023-10-25T09:33:18.328Z,59.80
2023-10-25T09:36:05.691Z,59.78
2023-10-25T09:38:53.602Z,59.67
2023-10-25T09:41:41.660Z,59.75
2023-10-25T09:44:32.789Z,59.70
2023-10-25T09:47:20.956Z,59.53
2023-10-25T09:50:12.140Z,59.56
2023-10-25T09:53:05.757Z,59.50
2023-10-25T09:55:56.646Z,59.16
2023-10-25T09:58:44.713Z,59.28
2023-10-25T10:01:31.414Z,59.15
2023-10-25T10:04:24.125Z,59.32
2023-10-25T10:07:14.178Z,59.33
2023-10-25T10:10:06.322Z,59.46
2023-10-25T10:12:53.238Z,59.37
2023-10-25T10:15:58.855Z,59.43
2023-10-25T10:18:47.119Z,59.54
2023-10-25T10:21:55.303Z,59.53
2023-10-25T10:24:43.511Z,59.63
2023-10-25T10:27:54.139Z,57.90
2023-10-25T10:30:41.500Z,57.20
2023-10-25T10:33:27.921Z,56.61
2023-10-25T10:36:24.854Z,55.51
2023-10-25T10:39:17.745Z,54.36
2023-10-25T10:42:04.571Z,56.25
2023-10-25T10:44:50.852Z,55.04
2023-10-25T10:47:39.129Z,54.49
2023-10-25T10:50:26.864Z,54.63
2023-10-25T10:53:13.619Z,56.11
2023-10-25T10:56:01.608Z,56.43
2023-10-25T10:58:48.752Z,55.52
2023-10-25T11:01:35.732Z,55.28
2023-10-25T11:04:22.526Z,55.38
2023-10-25T11:07:11.893Z,55.62
2023-10-25T11:09:59.063Z,55.75
2023-10-25T11:12:47.034Z,55.75
2023-10-25T11:15:33.759Z,55.86
2023-10-25T11:18:20.867Z,56.00
2023-10-25T11:21:07.829Z,55.97
2023-10-25T11:23:56.590Z,55.89
2023-10-25T11:26:44.342Z,56.30
2023-10-25T11:29:33.204Z,55.81
2023-10-25T11:32:19.856Z,55.67
2023-10-25T11:35:08.583Z,55.50
2023-10-25T11:37:55.109Z,55.68
2023-10-25T11:40:44.010Z,55.52
2023-10-25T11:43:31.997Z,55.38
2023-10-25T11:49:07.529Z,54.99
2023-10-25T11:51:54.930Z,54.90
2023-10-25T11:54:41.192Z,55.23
2023-10-25T11:57:29.351Z,55.42
2023-10-25T12:00:15.804Z,55.71
2023-10-25T12:03:02.257Z,55.73
2023-10-25T12:05:49.916Z,55.67
2023-10-25T12:08:36.315Z,55.81
2023-10-25T12:11:22.753Z,56.29
2023-10-25T12:14:11.978Z,56.30
2023-10-25T12:17:04.639Z,56.37
2023-10-25T12:19:52.316Z,56.33
2023-10-25T12:22:40.078Z,56.22
2023-10-25T12:25:29.599Z,56.36
2023-10-25T12:28:16.026Z,56.41
2023-10-25T12:31:02.514Z,56.33
2023-10-25T12:33:48.912Z,56.48
2023-10-25T12:36:35.358Z,56.63
2023-10-25T12:39:23.324Z,56.66
2023-10-25T12:42:09.923Z,56.74
2023-10-25T12:44:56.147Z,56.74
2023-10-25T12:47:42.927Z,56.73
2023-10-25T12:50:29.696Z,57.03
2023-10-25T12:53:16.148Z,56.98
2023-10-25T12:56:04.232Z,57.16
2023-10-25T12:58:50.869Z,57.45
2023-10-25T13:01:37.630Z,57.26
2023-10-25T13:04:25.114Z,57.20
2023-10-25T13:07:11.763Z,57.34
2023-10-25T13:09:57.942Z,57.54
2023-10-25T13:12:45.407Z,57.53
2023-10-25T13:15:31.926Z,57.44
2023-10-25T13:18:18.597Z,57.62
2023-10-25T13:21:05.028Z,57.83
2023-10-25T13:23:52.092Z,57.78
2023-10-25T13:26:38.907Z,57.82
2023-10-25T13:29:27.417Z,58.00
2023-10-25T13:32:13.576Z,58.02
2023-10-25T13:35:00.246Z,58.15
2023-10-25T13:37:46.895Z,58.03
2023-10-25T13:40:33.682Z,58.08
2023-10-25T13:43:20.202Z,58.31
2023-10-25T13:46:08.301Z,58.19
2023-10-25T13:48:54.890Z,58.15
2023-10-25T13:51:42.000Z,58.24
2023-10-25T13:54:29.600Z,58.26
2023-10-25T13:57:15.964Z,58.19
2023-10-25T14:00:05.968Z,58.09
2023-10-25T14:02:59.949Z,58.25
2023-10-25T14:05:46.762Z,58.26
2023-10-25T14:08:33.293Z,58.39
2023-10-25T14:11:20.258Z,58.33
2023-10-25T14:14:06.792Z,58.24
2023-10-25T14:16:53.304Z,58.21
2023-10-25T14:19:41.086Z,58.35
2023-10-25T14:22:27.840Z,58.10
2023-10-25T14:25:14.665Z,58.52
2023-10-25T14:28:01.049Z,58.48
2023-10-25T14:30:47.749Z,58.43
2023-10-25T14:33:34.426Z,58.46
2023-10-25T14:36:22.476Z,58.45
2023-10-25T14:39:13.844Z,58.78
2023-10-25T14:42:00.357Z,58.72
2023-10-25T14:44:46.784Z,58.43
2023-10-25T14:47:33.218Z,58.71
2023-10-25T14:50:19.874Z,58.70
2023-10-25T14:53:08.540Z,58.72
2023-10-25T14:55:54.800Z,58.61
2023-10-25T14:58:41.346Z,58.67
2023-10-25T15:01:28.821Z,58.89
2023-10-25T15:04:15.324Z,58.67
2023-10-25T15:07:01.846Z,58.70
2023-10-25T15:09:49.426Z,58.81
2023-10-25T15:12:36.576Z,58.72
2023-10-25T15:15:23.164Z,58.79
2023-10-25T15:18:09.614Z,58.98
2023-10-25T15:20:56.176Z,58.86
2023-10-25T15:23:42.698Z,58.97
2023-10-25T15:26:31.388Z,58.84
2023-10-25T15:29:18.137Z,58.84
2023-10-25T15:32:04.734Z,59.07
2023-10-25T15:34:50.933Z,58.91
2023-10-25T15:37:37.546Z,59.08
2023-10-25T15:43:17.353Z,58.91
2023-10-25T15:46:05.740Z,59.08
2023-10-25T15:48:53.357Z,58.85
2023-10-25T15:51:40.416Z,58.96
2023-10-25T15:54:26.522Z,58.87
2023-10-25T15:57:13.093Z,58.67
2023-10-25T16:00:01.031Z,58.93
2023-10-25T16:02:47.688Z,58.70
2023-10-25T16:05:34.320Z,58.81
2023-10-25T16:08:21.239Z,58.79
2023-10-25T16:11:08.295Z,58.76
2023-10-25T16:13:54.481Z,58.63
2023-10-25T16:16:42.605Z,58.76
2023-10-25T16:19:31.266Z,58.75
2023-10-25T16:22:19.209Z,58.92
2023-10-25T16:25:06.223Z,58.92
2023-10-25T16:27:52.919Z,58.77
2023-10-25T16:30:39.813Z,58.74
2023-10-25T16:33:27.455Z,58.79
2023-10-25T16:36:15.270Z,58.97
2023-10-25T16:39:01.930Z,59.03
2023-10-25T16:41:48.233Z,59.11
2023-10-25T16:44:37.097Z,58.93
2023-10-25T16:47:23.262Z,58.69
2023-10-25T16:50:11.169Z,58.86
2023-10-25T16:52:57.790Z,58.95
2023-10-25T16:55:44.164Z,58.92
2023-10-25T16:58:30.584Z,59.04
2023-10-25T17:01:17.850Z,59.07
2023-10-25T17:04:05.595Z,59.06
2023-10-25T17:06:53.588Z,59.32
2023-10-25T17:09:39.825Z,59.15
2023-10-25T17:12:26.064Z,59.41
2023-10-25T17:15:12.620Z,59.69
2023-10-25T17:17:59.327Z,59.82
2023-10-25T17:20:46.571Z,59.81
2023-10-25T17:23:35.995Z,59.79
2023-10-25T17:26:22.371Z,60.07
2023-10-25T17:29:08.984Z,59.64
2023-10-25T17:31:55.673Z,59.82
2023-10-25T17:34:42.358Z,59.94
2023-10-25T17:37:28.999Z,59.78
2023-10-25T17:40:17.143Z,60.03
2023-10-25T17:43:06.161Z,59.87
2023-10-25T17:48:42.546Z,60.48
2023-10-25T17:51:29.011Z,60.52
2023-10-25T17:54:15.434Z,60.38
2023-10-25T17:57:03.993Z,60.21
2023-10-25T17:59:51.285Z,60.28
2023-10-25T18:02:37.976Z,60.20
2023-10-25T18:05:24.505Z,60.11
2023-10-25T18:08:12.317Z,59.99
2023-10-25T18:10:58.919Z,59.98
2023-10-25T18:13:59.566Z,60.27
2023-10-25T18:16:46.875Z,59.98
2023-10-25T18:19:33.336Z,60.13
2023-10-25T18:22:21.314Z,59.53
2023-10-25T18:25:07.992Z,59.61
2023-10-25T18:27:55.309Z,57.99
2023-10-25T18:31:56.408Z,59.01
2023-10-25T18:33:53.074Z,59.30
2023-10-25T18:36:39.738Z,58.96
2023-10-25T18:39:27.121Z,58.80
2023-10-25T18:42:13.673Z,58.79
2023-10-25T18:45:01.957Z,58.83
2023-10-25T18:47:50.108Z,58.70
2023-10-25T18:50:36.982Z,58.86
2023-10-25T18:53:23.684Z,58.80
2023-10-25T18:56:10.163Z,58.71
2023-10-25T18:58:56.219Z,58.74
2023-10-25T19:01:42.621Z,58.81
2023-10-25T19:04:30.788Z,58.87
2023-10-25T19:07:36.808Z,59.04
2023-10-25T19:10:29.484Z,58.96
2023-10-25T19:13:17.668Z,58.93
2023-10-25T19:16:04.386Z,59.15
2023-10-25T19:18:51.025Z,59.16
2023-10-25T19:21:39.848Z,59.12
2023-10-25T19:24:26.495Z,58.93
2023-10-25T19:27:13.202Z,59.01
2023-10-25T19:29:59.779Z,59.01
2023-10-25T19:32:46.955Z,58.88
2023-10-25T19:35:36.301Z,59.01
2023-10-25T19:38:23.894Z,58.84
2023-10-25T19:41:10.407Z,58.87
2023-10-25T19:43:57.496Z,59.10
2023-10-25T19:46:44.844Z,58.85
2023-10-25T19:49:32.491Z,59.09
2023-10-25T19:52:19.273Z,59.04
2023-10-25T19:55:07.932Z,59.02
2023-10-25T19:57:54.141Z,59.11
2023-10-25T20:00:40.721Z,59.05
2023-10-25T20:03:27.317Z,58.93
2023-10-25T20:06:14.149Z,58.92
2023-10-25T20:09:02.408Z,59.24
2023-10-25T20:11:50.931Z,59.21
2023-10-25T20:14:37.301Z,58.92
2023-10-25T20:17:23.813Z,59.06
2023-10-25T20:20:10.966Z,59.18
2023-10-25T20:23:00.961Z,58.62
2023-10-25T20:25:51.021Z,58.04
2023-10-25T20:28:38.873Z,58.34
2023-10-25T20:31:25.523Z,57.82
2023-10-25T20:34:12.536Z,56.74
2023-10-25T20:36:59.398Z,57.20
2023-10-25T20:39:46.125Z,57.57
2023-10-25T20:42:32.491Z,57.78
2023-10-25T20:45:20.329Z,58.03
2023-10-25T20:48:07.626Z,58.17
2023-10-25T20:50:57.710Z,58.43
2023-10-25T20:53:44.220Z,58.08
2023-10-25T20:56:30.599Z,57.99
2023-10-25T20:59:16.959Z,57.75
2023-10-25T21:04:51.123Z,58.21
2023-10-25T21:07:42.960Z,58.40
2023-10-25T21:10:29.716Z,58.23
2023-10-25T21:13:16.669Z,58.09
2023-10-25T21:16:05.054Z,58.04
2023-10-25T21:18:52.791Z,57.96
2023-10-25T21:21:40.842Z,57.62
2023-10-25T21:24:28.266Z,57.60
2023-10-25T21:27:15.378Z,57.65
2023-10-25T21:30:04.055Z,57.72
2023-10-25T21:32:50.583Z,57.78
2023-10-25T21:35:37.183Z,57.75
2023-10-25T21:38:25.015Z,57.78
2023-10-25T21:41:13.646Z,57.80
2023-10-25T21:44:00.619Z,57.88
2023-10-25T21:46:47.143Z,57.73
2023-10-25T21:49:37.434Z,57.95
2023-10-25T21:52:24.034Z,58.08
2023-10-25T21:55:12.010Z,58.02
2023-10-25T21:59:46.493Z,58.08
2023-10-25T22:01:06.936Z,58.15
2023-10-25T22:03:53.505Z,58.16
2023-10-25T22:06:41.771Z,58.17
2023-10-25T22:09:27.878Z,58.24
2023-10-25T22:12:15.819Z,58.26
2023-10-25T22:15:02.340Z,58.14
2023-10-25T22:17:49.121Z,58.15
2023-10-25T22:20:35.390Z,58.24
2023-10-25T22:23:21.771Z,58.24
2023-10-25T22:26:08.172Z,58.43
2023-10-25T22:29:05.088Z,58.44
2023-10-25T22:31:59.671Z,58.35
2023-10-25T22:34:46.429Z,58.49
2023-10-25T22:37:33.348Z,58.45
2023-10-25T22:40:20.101Z,58.41
2023-10-25T22:43:06.619Z,58.61
2023-10-25T22:45:54.553Z,58.66
2023-10-25T22:48:41.392Z,58.59
2023-10-25T22:51:28.597Z,58.72
2023-10-25T22:54:14.887Z,58.64
2023-10-25T22:57:03.836Z,58.55
2023-10-25T22:59:51.334Z,58.53
2023-10-25T23:02:39.439Z,58.60
2023-10-25T23:05:25.996Z,58.72
2023-10-25T23:08:12.433Z,58.50
2023-10-25T23:10:59.048Z,58.62
2023-10-25T23:13:45.502Z,58.61
2023-10-25T23:16:31.814Z,58.66
2023-10-25T23:19:19.751Z,58.60
2023-10-25T23:22:06.365Z,58.85
2023-10-25T23:24:52.766Z,58.96
2023-10-25T23:27:39.253Z,58.98
2023-10-25T23:30:25.555Z,59.18
2023-10-25T23:33:12.023Z,59.20
2023-10-25T23:36:03.043Z,59.22
2023-10-25T23:38:49.578Z,59.26
2023-10-25T23:41:35.963Z,59.32
2023-10-25T23:44:22.501Z,59.24
2023-10-25T23:47:08.638Z,59.34
2023-10-25T23:49:55.158Z,59.19
2023-10-25T23:52:46.084Z,59.28
2023-10-25T23:55:33.095Z,59.30
2023-10-25T23:58:19.517Z,59.29
